logo tempoitalia

Diretta Meteo Pardubice, Repubblica Cecalunedì 31 agosto ore 07:00

Mappa
Sereno 15 °C Sereno 24 Ore: T.min 14 T.max 27
Ponente Nord Km/h 3.7 Punto di rugiada: 14 °C Umidità: 93% Visibilità: 10 Km
Il sole sorge alle: 06:10 Il sole tramonta alle: 19:44
31 Agosto 2026 07:00 tempo osservato: Sereno Sereno 15 93 1014 vento: Nord N 3.7
31 Agosto 2026 06:00 tempo osservato: Sereno Sereno 14 93 1014 vento: Nord N 3.7
31 Agosto 2026 05:00 tempo osservato: Sereno Sereno 14 100 1014 vento: Nord N 3.7
31 Agosto 2026 04:00 tempo osservato: Sereno Sereno 15 93 1014 vento: Nord N 0
31 Agosto 2026 03:00 tempo osservato: Sereno Sereno 16 87 1015 vento: Nord N 5.5
31 Agosto 2026 02:00 tempo osservato: Sereno Sereno 17 88 1015 vento: Nord N 5.5
31 Agosto 2026 01:00 tempo osservato: Sereno Sereno 17 82 1015 vento: Nord N 3.7
31 Agosto 2026 00:00 tempo osservato: Sereno Sereno 18 82 1015 vento: Nord N 0
30 Agosto 2026 23:00 tempo osservato: Sereno Sereno 19 77 1015 vento: Nord N 0
30 Agosto 2026 22:00 tempo osservato: Sereno Sereno 19 77 1015 vento: Nord N 1.8
30 Agosto 2026 21:00 tempo osservato: Sereno Sereno 20 68 1015 vento: Nord N 1.8
30 Agosto 2026 20:00 tempo osservato: Sereno Sereno 23 56 1014 vento: Nord S/SO 9.3
30 Agosto 2026 19:00 tempo osservato: Sereno Sereno 26 44 1014 vento: Nord O 13
30 Agosto 2026 18:00 tempo osservato: Sereno Sereno 27 39 1014 vento: Nord O 24
30 Agosto 2026 17:00 tempo osservato: Sereno Sereno 27 44 1014 vento: Nord SO 18.5
30 Agosto 2026 16:00 tempo osservato: Sereno Sereno 27 42 1014 vento: Nord SO 18.5
30 Agosto 2026 15:00 tempo osservato: Sereno Sereno 27 47 1015 vento: Nord SO 22.2
30 Agosto 2026 14:00 tempo osservato: Sereno Sereno 25 50 1015 vento: Nord O 14.8
30 Agosto 2026 13:00 tempo osservato: Sereno Sereno 26 50 1015 vento: Nord O/SO 18.5
30 Agosto 2026 12:00 tempo osservato: Sereno Sereno 25 50 1016 vento: Nord O/SO 16.7
30 Agosto 2026 11:00 tempo osservato: Sereno Sereno 25 50 1016 vento: Nord O/SO 16.7
30 Agosto 2026 10:00 tempo osservato: Sereno Sereno 24 50 1016 vento: Nord SO 16.7
30 Agosto 2026 09:00 tempo osservato: Sereno Sereno 21 64 1015 vento: Nord N 1.8
30 Agosto 2026 08:00 tempo osservato: Sereno Sereno 17 82 1015 vento: Nord E 7.4